Fritzlar, Germany

11:04 AM CEST on June 29, 2017 (GMT +0200)
Fritzlar | | Change Station

Elev 682 ft 51.13 °N, 9.26 °E | Updated 17 seconds ago

Overcast
Overcast
66.7 °F
Feels Like 66.7 °F
N
0.0
Wind Variable Wind from East
Gusts 0.0 mph

Today
High -- | Low -- °F
--% Chance of Precip.
Yesterday
High -- | Low -- °F
Precip. -- in
Pressure 29.42 in
Visibility 5.0 miles
Clouds Mostly Cloudy 600 ft
Overcast 3600 ft
Dew Point 58 °F
Humidity 73%
Rainfall 0.00 in
Snow Depth Not available.
5:10 AM 9:41 PM
Waxing Crescent, 33% visible
METAR EDVK 290850Z 06003KT 020V100 8000 BKN006 OVC036 17/17 Q0996
Pressure 29.42 in
Visibility 5.0 miles
Clouds Mostly Cloudy 600 ft
Overcast 3600 ft
Dew Point 58 °F
Humidity 73%
Rainfall 0.00 in
Snow Depth Not available.
5:10 AM 9:41 PM
Waxing Crescent, 33% visible
METAR EDVK 290850Z 06003KT 020V100 8000 BKN006 OVC036 17/17 Q0996

Get Severe Weather Alerts

Thanks for signing up!

Be on the lookout for a verification email in your inbox.

You'll start receiving the daily forecast at 6 AM.

×

10-Day Weather Forecast

×

Almanac

Astronomy

Jun. 29, 2017 Rise Set
Actual Time
Civil Twilight
Nautical Twilight
Astronomical Twilight
Moon
Length of Visible Light
Length of Day
Tomorrow will be .
, % of the Moon is Illuminated

Today's Extremes

Country Highs Country Lows

Community

WunderPhotos

Category 6

Welcome to Category 6. This is the collective home for Weather Underground's featured writeups by Dr. Jeff Masters (right), Bob Henson (left), Chris Burt, and other regular contributors.

Nearby

Air Quality

  Air Quality AQ Index Pollutant
Not available.

Snow Depth

Station Depth Elevation

Earthquake Activity

City Distance Mag. Time & Date
Minimum magnitude displayed is 2.5.

Coastal Water Temperatures

Place Temperature

Stations

Nearby Weather Stations

Station Location Temp. Windchill Dew Point Humidity Wind Precip. Elev Updated Type